Terminal Aerodrome Forecast
Issued by NWS Shreveport, LA

Home | Current Version | Previous Version | Text Only | Print | Product List | Glossary On
Versions: 1 2 3 4 5 6 7 8 9 10 11 12 13 14 15 16 17 18 19 20 21 22 23 24
000
FTUS44 KSHV 251805 AAA
TAFGGG
TAF AMD
KGGG 251805Z 2518/2618 17010KT P6SM -SHRA SCT040
     FM252200 18014G22KT 4SM TSRA BR BKN035CB OVC060
     FM260400 17010KT 5SM -SHRA VCTS OVC020CB
     FM261200 19006KT 5SM BR OVC015
     FM261500 22011KT P6SM OVC015=

USA.gov is the U.S. government's official web portal to all federal, state and local government web resources and services.